createdAt,value
2022-12-31T00:04:44.450Z,55.03
2022-12-31T00:09:47.135Z,54.93
2022-12-31T00:14:48.618Z,54.48
2022-12-31T00:19:50.326Z,53.98
2022-12-31T00:24:51.900Z,54.62
2022-12-31T00:29:53.444Z,54.00
2022-12-31T00:34:57.941Z,53.25
2022-12-31T00:39:59.598Z,52.79
2022-12-31T00:45:01.232Z,52.66
2022-12-31T00:50:03.087Z,52.58
2022-12-31T00:55:07.807Z,52.94
2022-12-31T01:00:10.142Z,54.33
2022-12-31T01:05:11.881Z,55.40
2022-12-31T01:10:13.475Z,54.63
2022-12-31T01:15:15.128Z,53.95
2022-12-31T01:20:16.829Z,54.00
2022-12-31T01:25:18.425Z,54.88
2022-12-31T01:30:20.017Z,54.28
2022-12-31T01:35:21.587Z,54.77
2022-12-31T01:40:25.437Z,55.27
2022-12-31T01:45:26.987Z,55.52
2022-12-31T01:50:35.765Z,55.19
2022-12-31T01:55:54.447Z,54.40
2022-12-31T02:00:58.953Z,54.57
2022-12-31T02:06:23.912Z,54.97
2022-12-31T02:11:30.057Z,54.46
2022-12-31T02:16:37.528Z,54.17
2022-12-31T02:21:54.555Z,54.96
2022-12-31T02:27:01.736Z,55.09
2022-12-31T02:32:12.479Z,55.57
2022-12-31T02:37:16.435Z,55.11
2022-12-31T02:42:18.122Z,53.23
2022-12-31T02:47:25.701Z,53.58
2022-12-31T02:52:36.260Z,54.15
2022-12-31T02:58:10.243Z,54.84
2022-12-31T03:03:12.015Z,54.95
2022-12-31T03:08:24.264Z,57.12
2022-12-31T03:13:26.468Z,57.02
2022-12-31T03:18:27.968Z,58.12
2022-12-31T03:23:32.877Z,58.29
2022-12-31T03:28:34.431Z,59.78
2022-12-31T03:33:38.661Z,58.64
2022-12-31T03:38:40.940Z,58.96
2022-12-31T03:43:42.421Z,59.29
2022-12-31T03:48:43.990Z,59.27
2022-12-31T03:53:45.535Z,59.33
2022-12-31T03:58:47.568Z,60.18
2022-12-31T04:03:49.095Z,60.16
2022-12-31T04:08:50.655Z,60.09
2022-12-31T04:13:52.239Z,60.70
2022-12-31T04:18:53.833Z,60.80
2022-12-31T04:23:55.491Z,61.53
2022-12-31T04:28:57.015Z,61.85
2022-12-31T04:33:58.549Z,63.42
2022-12-31T04:39:00.114Z,64.03
2022-12-31T04:44:01.753Z,64.20
2022-12-31T04:49:03.400Z,64.91
2022-12-31T04:54:05.399Z,65.19
2022-12-31T04:59:06.992Z,65.26
2022-12-31T05:04:08.603Z,64.92
2022-12-31T05:09:10.176Z,65.12
2022-12-31T05:14:11.726Z,65.46
2022-12-31T05:19:13.208Z,65.76
2022-12-31T05:24:14.713Z,65.79
2022-12-31T05:29:16.234Z,65.24
2022-12-31T05:34:17.948Z,65.43
2022-12-31T05:39:19.470Z,65.31
2022-12-31T05:44:21.000Z,65.86
2022-12-31T05:49:22.633Z,66.23
2022-12-31T05:54:24.976Z,65.65
2022-12-31T05:59:26.585Z,65.80
2022-12-31T06:04:28.123Z,66.69
2022-12-31T06:09:29.656Z,66.86
2022-12-31T06:14:31.834Z,67.07
2022-12-31T06:19:33.421Z,67.15
2022-12-31T06:24:34.970Z,67.84
2022-12-31T06:29:36.545Z,66.77
2022-12-31T06:34:38.965Z,66.94
2022-12-31T06:39:40.475Z,67.19
2022-12-31T06:44:42.008Z,68.02
2022-12-31T06:49:43.506Z,69.14
2022-12-31T06:54:45.340Z,69.44
2022-12-31T06:59:47.202Z,68.75
2022-12-31T07:05:31.784Z,68.61
2022-12-31T07:10:49.932Z,69.52
2022-12-31T07:16:06.796Z,69.20
2022-12-31T07:21:13.428Z,68.81
2022-12-31T07:26:21.453Z,69.31
2022-12-31T07:31:57.656Z,69.26
2022-12-31T07:37:19.788Z,69.60
2022-12-31T07:42:29.240Z,68.78
2022-12-31T07:47:30.992Z,68.64
2022-12-31T07:52:32.750Z,68.83
2022-12-31T07:57:42.439Z,67.87
2022-12-31T08:03:10.437Z,69.19
2022-12-31T08:08:21.324Z,69.77
2022-12-31T08:13:22.941Z,69.43
2022-12-31T08:18:24.636Z,68.26
2022-12-31T08:23:34.258Z,67.71
2022-12-31T08:28:57.698Z,66.75
2022-12-31T08:34:34.090Z,66.45
2022-12-31T08:39:47.628Z,66.80
2022-12-31T08:45:14.137Z,66.50
2022-12-31T08:50:17.919Z,66.49
2022-12-31T08:55:19.735Z,66.04
2022-12-31T09:00:21.913Z,64.42
2022-12-31T09:05:48.966Z,63.31
2022-12-31T09:11:05.842Z,62.78
2022-12-31T09:16:18.966Z,62.14
2022-12-31T09:21:20.657Z,62.07
2022-12-31T09:26:37.013Z,60.92
2022-12-31T09:31:47.547Z,60.44
2022-12-31T09:36:56.126Z,59.57
2022-12-31T09:42:12.748Z,59.60
2022-12-31T09:47:46.678Z,59.84
2022-12-31T09:52:50.995Z,59.74
2022-12-31T09:58:07.100Z,60.18
2022-12-31T10:03:51.965Z,59.03
2022-12-31T10:09:08.263Z,58.94
2022-12-31T10:14:47.420Z,58.16
2022-12-31T10:20:19.838Z,58.70
2022-12-31T10:25:58.872Z,57.95
2022-12-31T10:31:28.146Z,57.91
2022-12-31T10:36:52.475Z,57.32
2022-12-31T10:42:15.711Z,56.49
2022-12-31T10:47:44.735Z,54.28
2022-12-31T10:52:49.156Z,53.72
2022-12-31T10:58:32.162Z,52.30
2022-12-31T11:03:45.333Z,52.70
2022-12-31T11:09:27.417Z,52.05
2022-12-31T11:14:43.074Z,53.11
2022-12-31T11:20:22.527Z,52.33
2022-12-31T11:25:42.257Z,50.21
2022-12-31T11:30:49.749Z,46.40
2022-12-31T11:36:12.364Z,45.68
2022-12-31T11:41:41.659Z,45.80
2022-12-31T11:46:50.278Z,47.28
2022-12-31T11:52:07.116Z,48.81
2022-12-31T11:57:31.592Z,46.87
2022-12-31T12:02:36.898Z,46.49
2022-12-31T12:07:38.706Z,49.49
2022-12-31T12:12:41.974Z,51.54
2022-12-31T12:17:43.694Z,51.75
2022-12-31T12:22:53.777Z,52.04
2022-12-31T12:27:55.319Z,51.18
2022-12-31T12:32:59.571Z,50.77
2022-12-31T12:38:06.978Z,50.32
2022-12-31T12:43:23.163Z,49.88
2022-12-31T12:48:46.321Z,49.42
2022-12-31T12:53:50.464Z,50.04
2022-12-31T12:59:10.248Z,50.09
2022-12-31T13:04:34.363Z,49.05
2022-12-31T13:09:48.629Z,49.85
2022-12-31T13:15:03.435Z,51.13
2022-12-31T13:20:37.100Z,50.30
2022-12-31T13:25:47.113Z,51.79
2022-12-31T13:30:54.235Z,51.30
2022-12-31T13:35:59.801Z,52.67
2022-12-31T13:41:08.617Z,54.26
2022-12-31T13:46:19.017Z,55.19
2022-12-31T13:51:45.466Z,56.06
2022-12-31T13:56:50.103Z,57.02
2022-12-31T14:01:58.865Z,59.02
2022-12-31T14:07:06.543Z,58.67
2022-12-31T14:12:28.002Z,58.44
2022-12-31T14:17:42.470Z,58.44
2022-12-31T14:23:13.435Z,57.85
2022-12-31T14:28:24.336Z,58.27
2022-12-31T14:33:51.212Z,58.76
2022-12-31T14:39:14.434Z,60.15
2022-12-31T14:44:31.663Z,59.35
2022-12-31T14:49:54.095Z,60.86
2022-12-31T14:54:59.578Z,61.23
2022-12-31T15:11:11.947Z,63.64
